MSC Bettina — HPFG — position and weather

sailwx.info

Track history (hours):
 
Tides and Currents Weather Stations Pressure Air Temp Water Temp Dewpoint Dewpoint Depression Visibility Wind Speed Wind Dir Waves Ship Positions

MSC Bettina

Last reported at 2016-Jun-28 08:33 UTC. Time now 2016-Jun-29 02:06 UTC.
Position N 22°06' E 114°20'.

Length 366 m; draft 15.5 m.

Type: Ship (hazmat cat A). MMSI: 352361000.

Date/timePositionNaut miles runAvg speedWind from/ knotsBaromVisibWave heightAir tempDewpointWater temp
2016-Jun-28 08:33N 22°06' E 114°20'1613.0
2016-Jun-28 07:19N 22°16' E 114°06'1210.4
2016-Jun-28 06:12N 22°22' E 113°55'6 3.6
2016-Jun-28 04:28N 22°28' E 113°53'0 0.0
2016-Jun-28 03:29N 22°28' E 113°53'0 0.0
2016-Jun-28 02:33N 22°28' E 113°53'0 0.0
2016-Jun-28 01:28N 22°28' E 113°53'0 0.0
2016-Jun-28 00:22N 22°28' E 113°53'0 0.0
2016-Jun-27 23:28N 22°28' E 113°53'0 0.0
2016-Jun-27 22:28N 22°28' E 113°53'0 0.0
2016-Jun-27 21:22N 22°28' E 113°53'0 0.0
2016-Jun-27 20:28N 22°28' E 113°53'0 0.0
2016-Jun-27 19:33N 22°28' E 113°53'0 0.0
2016-Jun-27 18:33N 22°28' E 113°53'0 0.0
2016-Jun-27 17:33N 22°28' E 113°53'0 0.0
2016-Jun-27 16:33N 22°28' E 113°53'0 0.0
2016-Jun-27 15:33N 22°28' E 113°53'0 0.0
2016-Jun-27 14:33N 22°28' E 113°53'0 0.0
2016-Jun-27 13:33N 22°28' E 113°53'0 0.0
2016-Jun-27 12:15N 22°28' E 113°53'0 0.0
2016-Jun-27 11:27N 22°28' E 113°53'0 0.0
2016-Jun-27 10:15N 22°28' E 113°53'0 0.0
2016-Jun-27 09:33N 22°28' E 113°53'0 0.0
2016-Jun-27 08:15N 22°28' E 113°53'0 0.0
2016-Jun-27 07:33N 22°28' E 113°53'0 0.0
2016-Jun-27 06:33N 22°28' E 113°53'0 0.0
2016-Jun-27 05:33N 22°28' E 113°53'0 0.0
2016-Jun-27 04:33N 22°28' E 113°53'0 0.0
2016-Jun-27 03:33N 22°28' E 113°53'2 1.8
2016-Jun-27 02:34N 22°26' E 113°53'10 8.6
2016-Jun-27 01:26N 22°21' E 114°02'17 9.2
2016-Jun-26 23:33N 22°08' E 114°15'1812.6
2016-Jun-26 22:06N 22°09' E 114°35'19715.5
2016-Jun-26 09:23N 23°32' E 117°49'1517.3
2016-Jun-26 08:31N 23°41' E 118°02'1717.9
2016-Jun-26 07:33N 23°54' E 118°15'1716.7
2016-Jun-26 06:33N 24°10' E 118°17'1313.3
2016-Jun-26 05:34N 24°21' E 118°09'9 8.5
2016-Jun-26 04:31N 24°27' E 118°01'0 0.1
2016-Jun-26 03:31N 24°27' E 118°01'0 0.0
2016-Jun-26 02:31N 24°27' E 118°01'0 0.0
2016-Jun-26 01:31N 24°27' E 118°01'0 0.0
2016-Jun-26 00:31N 24°27' E 118°01'0 0.0
2016-Jun-25 23:31N 24°27' E 118°01'0 0.0
2016-Jun-25 22:31N 24°27' E 118°01'0 0.0
2016-Jun-25 21:31N 24°27' E 118°01'0 0.0
2016-Jun-25 20:31N 24°27' E 118°01'0 0.0
2016-Jun-25 19:31N 24°27' E 118°01'0 0.0
2016-Jun-25 18:31N 24°27' E 118°01'0 0.0
2016-Jun-25 17:31N 24°27' E 118°01'0 0.0
2016-Jun-25 16:31N 24°27' E 118°01'0 0.0
2016-Jun-25 15:31N 24°27' E 118°01'0 0.0
2016-Jun-25 14:31N 24°27' E 118°01'0 0.0
2016-Jun-25 13:31N 24°27' E 118°01'0 0.0
2016-Jun-25 12:31N 24°27' E 118°01'0 0.0
2016-Jun-25 11:31N 24°27' E 118°01'0 0.0
2016-Jun-25 10:31N 24°27' E 118°01'0 0.0
2016-Jun-25 09:31N 24°27' E 118°01'0 0.0
2016-Jun-25 08:31N 24°27' E 118°01'0 0.0
2016-Jun-25 07:28N 24°27' E 118°01'1 1.1
2016-Jun-25 06:34N 24°26' E 118°02'9 8.9
2016-Jun-25 05:34N 24°21' E 118°10'9 8.6
2016-Jun-25 04:33N 24°14' E 118°16'1110.9
2016-Jun-25 03:32N 24°15' E 118°28'1515.4
2016-Jun-25 02:33N 24°19' E 118°44'37917.2
2016-Jun-24 04:33N 29°43' E 122°24'1111.4
2016-Jun-24 03:33N 29°49' E 122°14'1110.9
2016-Jun-24 02:33N 29°55' E 122°03'1 0.7
2016-Jun-24 00:30N 29°53' E 122°03'0 0.0
2016-Jun-23 23:06N 29°53' E 122°03'0 0.0
2016-Jun-23 22:30N 29°53' E 122°03'0 0.0
2016-Jun-23 21:31N 29°53' E 122°03'0 0.0
2016-Jun-23 20:12N 29°53' E 122°03'0 0.0
2016-Jun-23 19:23N 29°53' E 122°03'0 0.0
2016-Jun-23 18:28N 29°53' E 122°03'0 0.0
2016-Jun-23 17:27N 29°53' E 122°03'0 0.0
2016-Jun-23 16:26N 29°53' E 122°03'0 0.0
2016-Jun-23 15:20N 29°53' E 122°03'0 0.0
2016-Jun-23 14:32N 29°53' E 122°03'0 0.0
2016-Jun-23 13:26N 29°53' E 122°03'0 0.0
2016-Jun-23 09:09N 29°54' E 122°03'2 3.7
2016-Jun-23 08:33N 29°54' E 122°05'9 9.0
2016-Jun-23 07:33N 29°49' E 122°13'13 6.3
2016-Jun-23 05:33N 29°42' E 122°25'1 1.4
2016-Jun-23 04:33N 29°41' E 122°26'0 0.0
2016-Jun-22 19:23N 29°41' E 122°26'0 0.1
2016-Jun-22 18:05N 29°41' E 122°26'0 0.1
2016-Jun-22 16:26N 29°41' E 122°26'3 3.5
2016-Jun-22 15:32N 29°44' E 122°25'44 8.2
2016-Jun-22 10:06N 30°22' E 122°51'2212.6
2016-Jun-22 08:20N 30°31' E 122°27'911.3
2016-Jun-22 07:33N 30°33' E 122°17'1312.9
2016-Jun-22 06:33N 30°37' E 122°03'1 0.1
2016-Jun-22 00:10N 30°38' E 122°03'0 0.0
2016-Jun-21 21:04N 30°38' E 122°03'0 0.0
2016-Jun-21 20:22N 30°38' E 122°03'0 0.0
2016-Jun-21 19:28N 30°38' E 122°03'0 0.0
2016-Jun-21 11:22N 30°38' E 122°03'0 0.0
2016-Jun-21 10:19N 30°38' E 122°03'0 0.0
2016-Jun-21 09:22N 30°38' E 122°03'0 0.0
2016-Jun-21 08:10N 30°38' E 122°03'0 0.0
2016-Jun-21 07:22N 30°38' E 122°03'5 1.6
2016-Jun-21 04:33N 30°35' E 122°07'1313.5
2016-Jun-21 03:34N 30°33' E 122°23'1818.0
2016-Jun-21 02:33N 30°30' E 122°44'18718.1
2016-Jun-20 16:13N 33°29' E 123°44'1420.6
2016-Jun-20 15:32N 33°43' E 123°44'  
Track history (hours):
 
Tides and Currents Weather Stations Pressure Air Temp Water Temp Dewpoint Dewpoint Depression Visibility Wind Speed Wind Dir Waves Ship Positions

MSC Bettina

Last reported at 2016-Jun-28 08:33 UTC. Time now 2016-Jun-29 02:06 UTC.
Position N 22°06' E 114°20'.

Length 366 m; draft 15.5 m.

Type: Ship (hazmat cat A). MMSI: 352361000.

Date/timePositionNaut miles runAvg speedWind from/ knotsBaromVisibWave heightAir tempDewpointWater temp
2016-Jun-28 08:33N 22°06' E 114°20'1613.0
2016-Jun-28 07:19N 22°16' E 114°06'1210.4
2016-Jun-28 06:12N 22°22' E 113°55'6 3.6
2016-Jun-28 04:28N 22°28' E 113°53'0 0.0
2016-Jun-28 03:29N 22°28' E 113°53'0 0.0
2016-Jun-28 02:33N 22°28' E 113°53'0 0.0
2016-Jun-28 01:28N 22°28' E 113°53'0 0.0
2016-Jun-28 00:22N 22°28' E 113°53'0 0.0
2016-Jun-27 23:28N 22°28' E 113°53'0 0.0
2016-Jun-27 22:28N 22°28' E 113°53'0 0.0
2016-Jun-27 21:22N 22°28' E 113°53'0 0.0
2016-Jun-27 20:28N 22°28' E 113°53'0 0.0
2016-Jun-27 19:33N 22°28' E 113°53'0 0.0
2016-Jun-27 18:33N 22°28' E 113°53'0 0.0
2016-Jun-27 17:33N 22°28' E 113°53'0 0.0
2016-Jun-27 16:33N 22°28' E 113°53'0 0.0
2016-Jun-27 15:33N 22°28' E 113°53'0 0.0
2016-Jun-27 14:33N 22°28' E 113°53'0 0.0
2016-Jun-27 13:33N 22°28' E 113°53'0 0.0
2016-Jun-27 12:15N 22°28' E 113°53'0 0.0
2016-Jun-27 11:27N 22°28' E 113°53'0 0.0
2016-Jun-27 10:15N 22°28' E 113°53'0 0.0
2016-Jun-27 09:33N 22°28' E 113°53'0 0.0
2016-Jun-27 08:15N 22°28' E 113°53'0 0.0
2016-Jun-27 07:33N 22°28' E 113°53'0 0.0
2016-Jun-27 06:33N 22°28' E 113°53'0 0.0
2016-Jun-27 05:33N 22°28' E 113°53'0 0.0
2016-Jun-27 04:33N 22°28' E 113°53'0 0.0
2016-Jun-27 03:33N 22°28' E 113°53'2 1.8
2016-Jun-27 02:34N 22°26' E 113°53'10 8.6
2016-Jun-27 01:26N 22°21' E 114°02'17 9.2
2016-Jun-26 23:33N 22°08' E 114°15'1812.6
2016-Jun-26 22:06N 22°09' E 114°35'19715.5
2016-Jun-26 09:23N 23°32' E 117°49'1517.3
2016-Jun-26 08:31N 23°41' E 118°02'1717.9
2016-Jun-26 07:33N 23°54' E 118°15'1716.7
2016-Jun-26 06:33N 24°10' E 118°17'1313.3
2016-Jun-26 05:34N 24°21' E 118°09'9 8.5
2016-Jun-26 04:31N 24°27' E 118°01'0 0.1
2016-Jun-26 03:31N 24°27' E 118°01'0 0.0
2016-Jun-26 02:31N 24°27' E 118°01'0 0.0
2016-Jun-26 01:31N 24°27' E 118°01'0 0.0
2016-Jun-26 00:31N 24°27' E 118°01'0 0.0
2016-Jun-25 23:31N 24°27' E 118°01'0 0.0
2016-Jun-25 22:31N 24°27' E 118°01'0 0.0
2016-Jun-25 21:31N 24°27' E 118°01'0 0.0
2016-Jun-25 20:31N 24°27' E 118°01'0 0.0
2016-Jun-25 19:31N 24°27' E 118°01'0 0.0
2016-Jun-25 18:31N 24°27' E 118°01'0 0.0
2016-Jun-25 17:31N 24°27' E 118°01'0 0.0
2016-Jun-25 16:31N 24°27' E 118°01'0 0.0
2016-Jun-25 15:31N 24°27' E 118°01'0 0.0
2016-Jun-25 14:31N 24°27' E 118°01'0 0.0
2016-Jun-25 13:31N 24°27' E 118°01'0 0.0
2016-Jun-25 12:31N 24°27' E 118°01'0 0.0
2016-Jun-25 11:31N 24°27' E 118°01'0 0.0
2016-Jun-25 10:31N 24°27' E 118°01'0 0.0
2016-Jun-25 09:31N 24°27' E 118°01'0 0.0
2016-Jun-25 08:31N 24°27' E 118°01'0 0.0
2016-Jun-25 07:28N 24°27' E 118°01'1 1.1
2016-Jun-25 06:34N 24°26' E 118°02'9 8.9
2016-Jun-25 05:34N 24°21' E 118°10'9 8.6
2016-Jun-25 04:33N 24°14' E 118°16'1110.9
2016-Jun-25 03:32N 24°15' E 118°28'1515.4
2016-Jun-25 02:33N 24°19' E 118°44'37917.2
2016-Jun-24 04:33N 29°43' E 122°24'1111.4
2016-Jun-24 03:33N 29°49' E 122°14'1110.9
2016-Jun-24 02:33N 29°55' E 122°03'1 0.7
2016-Jun-24 00:30N 29°53' E 122°03'0 0.0
2016-Jun-23 23:06N 29°53' E 122°03'0 0.0
2016-Jun-23 22:30N 29°53' E 122°03'0 0.0
2016-Jun-23 21:31N 29°53' E 122°03'0 0.0
2016-Jun-23 20:12N 29°53' E 122°03'0 0.0
2016-Jun-23 19:23N 29°53' E 122°03'0 0.0
2016-Jun-23 18:28N 29°53' E 122°03'0 0.0
2016-Jun-23 17:27N 29°53' E 122°03'0 0.0
2016-Jun-23 16:26N 29°53' E 122°03'0 0.0
2016-Jun-23 15:20N 29°53' E 122°03'0 0.0
2016-Jun-23 14:32N 29°53' E 122°03'0 0.0
2016-Jun-23 13:26N 29°53' E 122°03'0 0.0
2016-Jun-23 09:09N 29°54' E 122°03'2 3.7
2016-Jun-23 08:33N 29°54' E 122°05'9 9.0
2016-Jun-23 07:33N 29°49' E 122°13'13 6.3
2016-Jun-23 05:33N 29°42' E 122°25'1 1.4
2016-Jun-23 04:33N 29°41' E 122°26'0 0.0
2016-Jun-22 19:23N 29°41' E 122°26'0 0.1
2016-Jun-22 18:05N 29°41' E 122°26'0 0.1
2016-Jun-22 16:26N 29°41' E 122°26'3 3.5
2016-Jun-22 15:32N 29°44' E 122°25'44 8.2
2016-Jun-22 10:06N 30°22' E 122°51'2212.6
2016-Jun-22 08:20N 30°31' E 122°27'911.3
2016-Jun-22 07:33N 30°33' E 122°17'1312.9
2016-Jun-22 06:33N 30°37' E 122°03'1 0.1
2016-Jun-22 00:10N 30°38' E 122°03'0 0.0
2016-Jun-21 21:04N 30°38' E 122°03'0 0.0
2016-Jun-21 20:22N 30°38' E 122°03'0 0.0
2016-Jun-21 19:28N 30°38' E 122°03'0 0.0
2016-Jun-21 11:22N 30°38' E 122°03'0 0.0
2016-Jun-21 10:19N 30°38' E 122°03'0 0.0
2016-Jun-21 09:22N 30°38' E 122°03'0 0.0
2016-Jun-21 08:10N 30°38' E 122°03'0 0.0
2016-Jun-21 07:22N 30°38' E 122°03'5 1.6
2016-Jun-21 04:33N 30°35' E 122°07'1313.5
2016-Jun-21 03:34N 30°33' E 122°23'1818.0
2016-Jun-21 02:33N 30°30' E 122°44'18718.1
2016-Jun-20 16:13N 33°29' E 123°44'1420.6
2016-Jun-20 15:32N 33°43' E 123°44'  

Dump ship's entire track history